ADDS METAR Data

Data at: 2308 UTC 15 Aug 2018

METAR for:KISP (Islip/Macarthur Arpt, NY, US)
Text:KISP 152256Z 25006KT 10SM FEW060 SCT250 29/19 A2991 RMK AO2 SLP125 T02940189
Temperature: 29.4°C ( 85°F)
Dewpoint: 18.9°C ( 66°F) [RH = 53%]
Pressure (altimeter):29.91 inches Hg (1013.0 mb) [Sea level pressure: 1012.5 mb]
Winds:from the WSW (250 degrees) at 7 MPH (6 knots; 3.1 m/s)
Visibility:10 or more sm (16+ km)
Ceiling:at least 12,000 feet AGL
Clouds: few clouds at 6000 feet AGL, scattered clouds at 25000 feet AGL